Terminal Aerodrome Forecast
Issued by NWS

Home | Current Version | Previous Version | Text Only | Print | Product List | Glossary On
Versions: 1 2 3 4 5 6 7 8 9 10 11 12 13 14 15 16 17 18 19 20 21 22 23 24
000
FTUS45 KGJT 190535
TAFDRO
TAF
KDRO 190535Z 1906/2006 VRB03KT P6SM FEW150 OVC250
     FM191200 05004KT P6SM SCT140 BKN250
     FM191400 06004KT P6SM FEW140 SCT250
     FM191800 13004KT P6SM FEW140 SCT250
     FM200200 07005KT P6SM FEW120 SCT250=

USA.gov is the U.S. government's official web portal to all federal, state and local government web resources and services.